createdAt,value
2023-06-07T00:01:01.088Z,2.17
2023-06-07T00:03:28.925Z,2.25
2023-06-07T00:05:56.603Z,2.28
2023-06-07T00:08:25.322Z,2.40
2023-06-07T00:10:52.681Z,2.17
2023-06-07T00:13:20.099Z,1.88
2023-06-07T00:15:47.483Z,2.42
2023-06-07T00:18:16.597Z,2.33
2023-06-07T00:20:47.524Z,2.20
2023-06-07T00:23:14.921Z,2.50
2023-06-07T00:25:42.356Z,2.05
2023-06-07T00:28:10.010Z,2.15
2023-06-07T00:30:37.461Z,2.20
2023-06-07T00:33:04.988Z,2.03
2023-06-07T00:35:34.015Z,2.33
2023-06-07T00:38:01.462Z,2.20
2023-06-07T00:40:28.893Z,2.50
2023-06-07T00:42:56.256Z,1.88
2023-06-07T00:45:23.911Z,2.45
2023-06-07T00:47:51.440Z,2.53
2023-06-07T00:50:18.909Z,2.38
2023-06-07T00:52:46.485Z,2.60
2023-06-07T00:55:14.676Z,2.63
2023-06-07T00:57:43.679Z,2.30
2023-06-07T01:00:15.080Z,2.65
2023-06-07T01:02:48.120Z,2.20
2023-06-07T01:05:16.187Z,2.33
2023-06-07T01:07:47.619Z,2.33
2023-06-07T01:10:15.568Z,2.22
2023-06-07T01:12:45.592Z,1.98
2023-06-07T01:15:14.224Z,2.75
2023-06-07T01:17:44.335Z,2.50
2023-06-07T01:20:14.895Z,2.13
2023-06-07T01:22:44.330Z,2.03
2023-06-07T01:25:13.586Z,2.45
2023-06-07T01:27:45.125Z,2.53
2023-06-07T01:30:15.435Z,2.28
2023-06-07T01:32:43.681Z,2.33
2023-06-07T01:35:12.232Z,2.00
2023-06-07T01:37:40.722Z,2.60
2023-06-07T01:40:09.340Z,2.22
2023-06-07T01:42:37.220Z,2.45
2023-06-07T01:45:06.607Z,2.58
2023-06-07T01:47:36.680Z,2.20
2023-06-07T01:50:04.751Z,2.20
2023-06-07T01:52:32.627Z,2.33
2023-06-07T01:55:01.460Z,2.40
2023-06-07T02:02:56.587Z,2.40
2023-06-07T02:08:19.165Z,2.17
2023-06-07T02:10:47.787Z,2.72
2023-06-07T02:13:16.572Z,1.90
2023-06-07T02:15:47.711Z,2.40
2023-06-07T02:18:20.744Z,2.20
2023-06-07T02:20:48.638Z,2.70
2023-06-07T02:23:16.251Z,2.42
2023-06-07T02:25:43.911Z,2.28
2023-06-07T02:28:11.524Z,2.65
2023-06-07T02:30:39.121Z,2.30
2023-06-07T02:33:08.355Z,2.28
2023-06-07T02:35:36.211Z,2.10
2023-06-07T02:38:03.628Z,2.75
2023-06-07T02:40:31.196Z,2.83
2023-06-07T02:42:59.564Z,2.38
2023-06-07T02:45:26.986Z,2.33
2023-06-07T02:47:55.179Z,2.78
2023-06-07T02:50:24.038Z,2.70
2023-06-07T02:52:53.885Z,2.30
2023-06-07T02:55:24.786Z,2.70
2023-06-07T02:57:52.387Z,2.17
2023-06-07T03:00:24.744Z,2.70
2023-06-07T03:02:58.050Z,2.80
2023-06-07T03:05:27.873Z,2.85
2023-06-07T03:08:01.434Z,2.58
2023-06-07T03:10:30.403Z,2.70
2023-06-07T03:12:58.802Z,2.25
2023-06-07T03:15:26.629Z,2.50
2023-06-07T03:17:54.739Z,2.35
2023-06-07T03:20:23.321Z,2.28
2023-06-07T03:22:54.387Z,2.70
2023-06-07T03:25:22.343Z,2.60
2023-06-07T03:27:50.845Z,3.10
2023-06-07T03:30:25.265Z,2.35
2023-06-07T03:32:53.397Z,2.30
2023-06-07T03:35:21.910Z,2.28
2023-06-07T03:37:50.380Z,1.70
2023-06-07T03:40:26.051Z,2.50
2023-06-07T03:42:54.016Z,2.35
2023-06-07T03:45:25.267Z,1.95
2023-06-07T03:47:59.850Z,2.00
2023-06-07T03:50:28.751Z,1.65
2023-06-07T03:52:56.161Z,1.67
2023-06-07T03:55:24.494Z,1.70
2023-06-07T03:57:53.029Z,2.15
2023-06-07T04:00:21.298Z,1.75
2023-06-07T04:02:55.824Z,2.97
2023-06-07T04:05:25.952Z,1.75
2023-06-07T04:07:54.645Z,2.42
2023-06-07T04:10:22.255Z,2.17
2023-06-07T04:12:52.361Z,2.17
2023-06-07T04:15:20.165Z,2.13
2023-06-07T04:17:47.619Z,2.13
2023-06-07T04:20:16.306Z,2.03
2023-06-07T04:22:44.847Z,1.98
2023-06-07T04:25:12.809Z,2.08
2023-06-07T04:27:40.306Z,1.52
2023-06-07T04:30:14.748Z,1.83
2023-06-07T04:32:42.323Z,2.17
2023-06-07T04:35:15.993Z,1.70
2023-06-07T04:37:47.176Z,2.15
2023-06-07T04:42:57.035Z,1.60
2023-06-07T04:45:32.731Z,1.55
2023-06-07T04:48:02.098Z,1.50
2023-06-07T04:50:31.243Z,1.38
2023-06-07T04:53:02.424Z,1.50
2023-06-07T04:55:32.730Z,1.40
2023-06-07T04:58:01.385Z,1.73
2023-06-07T05:00:32.185Z,1.27
2023-06-07T05:03:20.054Z,1.70
2023-06-07T05:05:48.196Z,1.42
2023-06-07T05:08:16.983Z,1.73
2023-06-07T05:11:00.703Z,1.60
2023-06-07T05:13:28.863Z,1.23
2023-06-07T05:16:00.312Z,1.65
2023-06-07T05:18:28.759Z,1.83
2023-06-07T05:20:58.129Z,1.75
2023-06-07T05:23:27.249Z,1.25
2023-06-07T05:25:56.830Z,1.77
2023-06-07T05:28:25.072Z,1.30
2023-06-07T05:30:57.680Z,1.33
2023-06-07T05:33:26.808Z,1.45
2023-06-07T05:35:54.888Z,1.48
2023-06-07T05:38:22.609Z,1.30
2023-06-07T05:40:50.608Z,1.45
2023-06-07T05:43:19.437Z,1.50
2023-06-07T05:45:48.856Z,1.45
2023-06-07T05:48:16.463Z,1.40
2023-06-07T05:50:44.708Z,1.17
2023-06-07T05:53:13.901Z,1.10
2023-06-07T05:55:41.755Z,1.50
2023-06-07T05:58:09.233Z,1.23
2023-06-07T06:00:36.779Z,1.48
2023-06-07T06:03:05.857Z,1.15
2023-06-07T06:05:33.282Z,1.40
2023-06-07T06:08:00.900Z,1.52
2023-06-07T06:10:28.451Z,1.20
2023-06-07T06:12:57.174Z,1.40
2023-06-07T06:15:24.882Z,1.17
2023-06-07T06:17:55.925Z,1.17
2023-06-07T06:20:23.637Z,1.30
2023-06-07T06:22:51.607Z,1.30
2023-06-07T06:25:19.327Z,1.40
2023-06-07T06:27:46.930Z,1.08
2023-06-07T06:30:15.234Z,1.33
2023-06-07T06:32:43.118Z,1.55
2023-06-07T06:35:10.722Z,1.05
2023-06-07T06:37:38.281Z,1.50
2023-06-07T06:40:07.287Z,1.45
2023-06-07T06:42:34.934Z,1.17
2023-06-07T06:45:18.845Z,1.20
2023-06-07T06:47:46.610Z,1.30
2023-06-07T06:50:31.282Z,1.60
2023-06-07T06:53:00.642Z,1.50
2023-06-07T06:55:28.200Z,1.08
2023-06-07T06:57:57.142Z,1.23
2023-06-07T07:00:24.970Z,1.10
2023-06-07T07:02:53.094Z,1.30
2023-06-07T07:05:20.901Z,1.02
2023-06-07T07:07:48.572Z,1.20
2023-06-07T07:10:16.269Z,1.00
2023-06-07T07:12:43.797Z,1.40
2023-06-07T07:15:12.782Z,1.13
2023-06-07T07:17:46.779Z,1.25
2023-06-07T07:20:15.205Z,0.98
2023-06-07T10:11:45.560Z,1.92
2023-06-07T10:14:16.676Z,1.55
2023-06-07T10:16:47.004Z,1.30
2023-06-07T10:19:20.905Z,1.95
2023-06-07T10:21:51.957Z,1.80
2023-06-07T10:26:57.067Z,1.63
2023-06-07T10:32:28.540Z,1.45
2023-06-07T10:34:57.030Z,1.90
2023-06-07T10:37:25.958Z,2.22
2023-06-07T10:39:53.518Z,2.10
2023-06-07T10:42:21.236Z,1.65
2023-06-07T10:44:49.000Z,2.17
2023-06-07T10:47:28.449Z,1.95
2023-06-07T10:49:56.461Z,1.30
2023-06-07T10:52:25.239Z,3.20
2023-06-07T10:54:53.181Z,2.80
2023-06-07T10:57:38.032Z,2.40
2023-06-07T11:06:04.454Z,1.83
2023-06-07T11:08:34.516Z,1.83
2023-06-07T11:11:03.249Z,1.85
2023-06-07T11:16:36.818Z,2.00
2023-06-07T11:19:11.297Z,1.90
2023-06-07T11:21:59.834Z,1.92
2023-06-07T11:24:27.544Z,2.15
2023-06-07T11:26:55.314Z,1.60
2023-06-07T11:29:23.084Z,1.92
2023-06-07T11:31:59.641Z,1.50
2023-06-07T11:34:28.882Z,1.70
2023-06-07T11:37:18.098Z,2.70
2023-06-07T11:39:47.081Z,2.40
2023-06-07T11:42:14.752Z,2.05
2023-06-07T11:44:42.588Z,1.42
2023-06-07T11:47:10.570Z,1.70
2023-06-07T11:49:40.042Z,1.60
2023-06-07T11:52:07.918Z,1.63
2023-06-07T11:54:35.618Z,1.48
2023-06-07T11:57:03.223Z,1.02
2023-06-07T11:59:31.322Z,1.70
2023-06-07T12:01:59.624Z,1.73
2023-06-07T12:04:27.318Z,1.70
2023-06-07T12:06:56.366Z,1.45
2023-06-07T12:09:24.067Z,1.00
2023-06-07T12:11:54.656Z,1.38
2023-06-07T12:14:31.843Z,1.42
2023-06-07T12:19:27.391Z,1.52
2023-06-07T12:21:58.028Z,1.90
2023-06-07T12:24:25.690Z,1.52
2023-06-07T12:26:58.053Z,1.42
2023-06-07T12:29:30.831Z,1.50
2023-06-07T12:32:01.160Z,1.42
2023-06-07T12:34:30.503Z,1.60
2023-06-07T12:36:57.890Z,1.52
2023-06-07T12:39:29.861Z,1.55
2023-06-07T12:41:57.426Z,1.35
2023-06-07T12:44:25.286Z,1.58
2023-06-07T12:46:52.802Z,1.90
2023-06-07T12:49:20.483Z,1.70
2023-06-07T12:51:48.231Z,1.40
2023-06-07T12:54:15.852Z,1.65
2023-06-07T12:56:43.575Z,1.50
2023-06-07T12:59:11.131Z,1.70
2023-06-07T13:01:38.790Z,1.70
2023-06-07T13:04:06.618Z,1.48
2023-06-07T13:06:34.278Z,1.67
2023-06-07T13:09:06.769Z,1.63
2023-06-07T13:11:34.426Z,1.40
2023-06-07T13:14:02.283Z,1.63
2023-06-07T13:16:30.580Z,2.05
2023-06-07T13:18:59.290Z,1.63
2023-06-07T13:21:27.118Z,1.50
2023-06-07T13:23:54.710Z,1.40
2023-06-07T13:26:22.223Z,1.30
2023-06-07T13:28:50.406Z,1.50
2023-06-07T13:31:18.001Z,1.30
2023-06-07T13:33:45.860Z,1.58
2023-06-07T13:36:13.686Z,1.30
2023-06-07T13:38:41.493Z,1.60
2023-06-07T13:41:10.497Z,1.55
2023-06-07T13:46:08.598Z,2.13
2023-06-07T13:48:37.478Z,1.33
2023-06-07T13:51:05.641Z,1.50
2023-06-07T13:53:33.127Z,1.48
2023-06-07T13:56:00.627Z,1.55
2023-06-07T13:58:33.407Z,1.40
2023-06-07T14:01:18.544Z,1.50
2023-06-07T14:03:46.624Z,1.75
2023-06-07T14:06:30.108Z,1.42
2023-06-07T14:08:57.961Z,1.58
2023-06-07T14:11:27.188Z,2.10
2023-06-07T14:13:54.731Z,1.73
2023-06-07T14:16:22.570Z,2.10
2023-06-07T14:18:50.565Z,1.80
2023-06-07T14:21:18.745Z,1.67
2023-06-07T14:23:46.540Z,1.48
2023-06-07T14:26:16.329Z,1.70
2023-06-07T14:28:45.187Z,1.70
2023-06-07T14:31:29.347Z,1.50
2023-06-07T14:33:56.866Z,1.33
2023-06-07T14:36:42.988Z,1.48
2023-06-07T14:39:10.726Z,1.60
2023-06-07T14:41:38.281Z,1.55
2023-06-07T14:44:05.907Z,1.83
2023-06-07T14:46:34.055Z,1.60
2023-06-07T14:49:01.537Z,2.08
2023-06-07T14:51:30.622Z,1.33
2023-06-07T14:53:58.180Z,1.80
2023-06-07T14:56:25.760Z,2.00
2023-06-07T14:58:53.743Z,1.42
2023-06-07T15:01:21.483Z,2.15
2023-06-07T15:04:04.845Z,1.70
2023-06-07T15:06:32.360Z,2.13
2023-06-07T15:09:16.249Z,1.65
2023-06-07T15:11:43.959Z,1.52
2023-06-07T15:14:11.564Z,1.67
2023-06-07T15:16:40.661Z,1.92
2023-06-07T15:19:08.188Z,1.48
2023-06-07T15:21:35.816Z,1.80
2023-06-07T15:24:03.379Z,1.88
2023-06-07T15:26:31.021Z,1.63
2023-06-07T15:28:59.368Z,1.70
2023-06-07T15:31:27.354Z,2.13
2023-06-07T15:33:56.655Z,1.65
2023-06-07T15:36:55.332Z,1.90
2023-06-07T15:39:22.809Z,1.75
2023-06-07T15:41:52.374Z,1.50
2023-06-07T15:44:21.053Z,2.20
2023-06-07T15:46:49.761Z,1.55
2023-06-07T15:49:32.958Z,1.90
2023-06-07T15:52:00.389Z,1.63
2023-06-07T15:54:28.456Z,3.00
2023-06-07T15:56:55.945Z,1.58
2023-06-07T15:59:39.829Z,1.52
2023-06-07T16:02:07.809Z,1.65
2023-06-07T16:04:51.121Z,1.70
2023-06-07T16:07:34.766Z,1.58
2023-06-07T16:10:04.252Z,1.50
2023-06-07T16:12:32.469Z,1.67
2023-06-07T16:15:00.469Z,1.90
2023-06-07T16:17:28.016Z,1.75
2023-06-07T16:19:55.474Z,1.58
2023-06-07T16:22:22.937Z,2.15
2023-06-07T16:25:07.306Z,2.35
2023-06-07T16:27:34.768Z,1.60
2023-06-07T16:30:18.851Z,2.03
2023-06-07T16:32:46.340Z,1.75
2023-06-07T16:35:13.909Z,1.77
2023-06-07T16:37:41.434Z,1.58
2023-06-07T16:40:09.544Z,1.83
2023-06-07T16:42:40.754Z,1.92
2023-06-07T16:45:10.050Z,1.50
2023-06-07T16:47:53.195Z,1.70
2023-06-07T16:50:20.717Z,1.50
2023-06-07T16:53:03.730Z,1.70
2023-06-07T16:55:31.184Z,1.42
2023-06-07T16:57:58.753Z,1.88
2023-06-07T17:00:27.332Z,1.88
2023-06-07T17:03:10.508Z,2.50
2023-06-07T17:05:38.014Z,2.40
2023-06-07T17:08:21.139Z,1.70
2023-06-07T17:10:49.374Z,1.77
2023-06-07T17:13:17.321Z,1.80
2023-06-07T17:16:00.390Z,2.78
2023-06-07T17:18:27.798Z,2.08
2023-06-07T17:20:55.401Z,2.70
2023-06-07T17:23:38.503Z,3.20
2023-06-07T17:26:08.105Z,2.00
2023-06-07T17:28:35.853Z,1.92
2023-06-07T17:31:04.870Z,2.03
2023-06-07T17:33:36.312Z,2.10
2023-06-07T17:36:19.880Z,2.20
2023-06-07T17:38:49.618Z,3.50
2023-06-07T17:41:17.227Z,4.63
2023-06-07T17:44:00.265Z,2.90
2023-06-07T17:49:10.557Z,2.17
2023-06-07T17:51:58.579Z,1.63
2023-06-07T17:54:47.728Z,1.40
2023-06-07T17:57:15.827Z,1.90
2023-06-07T17:59:43.308Z,2.00
2023-06-07T18:04:53.613Z,1.63
2023-06-07T18:07:21.378Z,2.30
2023-06-07T18:09:48.914Z,2.15
2023-06-07T18:12:17.305Z,1.95
2023-06-07T18:14:45.828Z,1.95
2023-06-07T18:17:29.252Z,2.00
2023-06-07T18:20:12.876Z,2.00
2023-06-07T18:22:41.427Z,2.03
2023-06-07T18:25:13.379Z,2.28
2023-06-07T18:27:41.059Z,2.20
2023-06-07T18:30:09.398Z,2.33
2023-06-07T18:32:37.359Z,2.33
2023-06-07T18:35:05.532Z,2.10
2023-06-07T18:37:33.634Z,2.28
2023-06-07T18:40:06.055Z,2.00
2023-06-07T18:42:33.946Z,1.85
2023-06-07T18:45:02.519Z,2.67
2023-06-07T18:47:34.217Z,2.35
2023-06-07T18:50:05.189Z,2.28
2023-06-07T18:55:01.519Z,2.35
2023-06-07T18:57:31.797Z,2.55
2023-06-07T18:59:59.532Z,2.88
2023-06-07T19:02:27.014Z,2.97
2023-06-07T19:04:54.618Z,2.75
2023-06-07T19:07:22.983Z,2.50
2023-06-07T19:09:50.419Z,3.20
2023-06-07T19:12:17.830Z,2.83
2023-06-07T19:14:45.272Z,2.38
2023-06-07T19:17:28.409Z,2.25
2023-06-07T19:19:58.540Z,1.75
2023-06-07T19:22:26.255Z,1.95
2023-06-07T19:24:53.810Z,1.80
2023-06-07T19:27:22.700Z,1.80
2023-06-07T19:29:50.167Z,2.22
2023-06-07T19:32:17.709Z,2.25
2023-06-07T19:34:45.878Z,2.03
2023-06-07T19:37:29.293Z,1.85
2023-06-07T19:40:16.690Z,2.42
2023-06-07T19:42:44.873Z,1.92
2023-06-07T19:45:12.909Z,1.90
2023-06-07T19:47:40.489Z,1.85
2023-06-07T19:50:08.538Z,2.58
2023-06-07T19:52:51.752Z,1.75
2023-06-07T19:55:19.262Z,1.90
2023-06-07T19:58:23.514Z,1.70
2023-06-07T20:00:51.005Z,1.90
2023-06-07T20:03:18.595Z,1.75
2023-06-07T20:05:46.116Z,1.98
2023-06-07T20:08:13.543Z,2.13
2023-06-07T20:10:56.574Z,1.70
2023-06-07T20:13:24.598Z,2.08
2023-06-07T20:15:52.104Z,2.08
2023-06-07T20:18:35.321Z,2.15
2023-06-07T20:21:02.783Z,2.28
2023-06-07T20:23:45.871Z,2.25
2023-06-07T20:26:13.438Z,2.13
2023-06-07T20:28:40.936Z,2.67
2023-06-07T20:31:08.364Z,2.60
2023-06-07T20:33:51.452Z,2.10
2023-06-07T20:36:18.959Z,3.53
2023-06-07T20:38:47.264Z,2.63
2023-06-07T20:41:15.164Z,2.53
2023-06-07T20:43:42.652Z,2.35
2023-06-07T20:46:10.248Z,2.30
2023-06-07T20:48:37.895Z,2.90
2023-06-07T20:51:05.313Z,2.55
2023-06-07T20:53:32.828Z,2.13
2023-06-07T20:56:00.275Z,2.78
2023-06-07T20:58:27.665Z,2.50
2023-06-07T21:00:55.100Z,2.30
2023-06-07T21:03:22.805Z,3.22
2023-06-07T21:05:50.855Z,2.58
2023-06-07T21:08:18.328Z,2.65
2023-06-07T21:10:46.942Z,2.78
2023-06-07T21:13:14.543Z,2.70
2023-06-07T21:15:42.476Z,3.05
2023-06-07T21:18:10.099Z,3.45
2023-06-07T21:20:37.635Z,3.45
2023-06-07T21:23:05.163Z,2.30
2023-06-07T21:25:33.293Z,2.92
2023-06-07T21:28:01.182Z,2.97
2023-06-07T21:30:29.002Z,2.70
2023-06-07T21:32:56.604Z,2.78
2023-06-07T21:35:24.665Z,2.15
2023-06-07T21:37:52.118Z,2.42
2023-06-07T21:40:19.684Z,2.97
2023-06-07T21:42:47.826Z,2.60
2023-06-07T21:45:15.400Z,2.97
2023-06-07T21:47:44.046Z,3.15
2023-06-07T21:50:11.846Z,3.42
2023-06-07T21:52:39.632Z,2.35
2023-06-07T21:55:07.241Z,2.85
2023-06-07T21:57:34.828Z,2.20
2023-06-07T22:00:02.292Z,2.50
2023-06-07T22:02:52.335Z,2.42
2023-06-07T22:05:21.303Z,3.08
2023-06-07T22:07:48.812Z,3.03
2023-06-07T22:10:16.301Z,2.80
2023-06-07T22:12:44.113Z,3.42
2023-06-07T22:15:14.092Z,2.53
2023-06-07T22:17:41.987Z,3.63
2023-06-07T22:20:09.632Z,3.38
2023-06-07T22:22:37.745Z,3.33
2023-06-07T22:25:05.649Z,3.63
2023-06-07T22:27:34.285Z,3.00
2023-06-07T22:30:01.838Z,4.10
2023-06-07T22:32:34.101Z,3.00
2023-06-07T22:35:05.686Z,3.28
2023-06-07T22:37:34.947Z,2.60
2023-06-07T22:40:06.179Z,2.80
2023-06-07T22:42:35.282Z,2.65
2023-06-07T22:45:03.729Z,2.72
2023-06-07T22:47:36.060Z,3.78
2023-06-07T22:50:04.483Z,3.47
2023-06-07T22:52:36.033Z,2.90
2023-06-07T22:55:04.289Z,3.50
2023-06-07T22:57:33.710Z,3.30
2023-06-07T23:00:02.936Z,3.10
2023-06-07T23:02:37.496Z,3.72
2023-06-07T23:05:05.324Z,2.08
2023-06-07T23:07:33.480Z,3.33
2023-06-07T23:10:01.271Z,3.72
2023-06-07T23:12:31.245Z,3.35
2023-06-07T23:14:58.735Z,3.05
2023-06-07T23:17:26.236Z,2.83
2023-06-07T23:19:54.328Z,3.72
2023-06-07T23:22:21.743Z,3.03
2023-06-07T23:24:49.402Z,3.53
2023-06-07T23:27:16.947Z,3.65
2023-06-07T23:29:44.910Z,3.10
2023-06-07T23:32:12.451Z,2.97
2023-06-07T23:34:40.392Z,3.08
2023-06-07T23:37:07.871Z,2.75
2023-06-07T23:39:35.409Z,2.90
2023-06-07T23:42:02.870Z,2.83
2023-06-07T23:44:31.094Z,2.88
2023-06-07T23:46:59.510Z,2.85
2023-06-07T23:49:32.702Z,2.80
2023-06-07T23:52:00.322Z,2.88
2023-06-07T23:54:28.426Z,3.30
2023-06-07T23:56:56.214Z,3.42
2023-06-07T23:59:26.804Z,2.78
